sensor_id;sensor_type;location;lat;lon;timestamp;temperature;humidity
9790;DHT22;4934;50.852;8.098;2023-12-04T00:02:14;-2.30;99.90
9790;DHT22;4934;50.852;8.098;2023-12-04T00:04:39;-2.30;99.90
9790;DHT22;4934;50.852;8.098;2023-12-04T00:07:05;-2.20;99.90
9790;DHT22;4934;50.852;8.098;2023-12-04T00:09:31;-2.20;99.90
9790;DHT22;4934;50.852;8.098;2023-12-04T00:11:56;-2.20;99.90
9790;DHT22;4934;50.852;8.098;2023-12-04T00:14:22;-2.30;99.90
9790;DHT22;4934;50.852;8.098;2023-12-04T00:16:47;-2.20;99.90
9790;DHT22;4934;50.852;8.098;2023-12-04T00:19:13;-2.20;99.90
9790;DHT22;4934;50.852;8.098;2023-12-04T00:21:38;-2.30;99.90
9790;DHT22;4934;50.852;8.098;2023-12-04T00:24:04;-2.30;99.90
9790;DHT22;4934;50.852;8.098;2023-12-04T00:26:30;-2.30;99.90
9790;DHT22;4934;50.852;8.098;2023-12-04T00:28:56;-2.20;99.90
9790;DHT22;4934;50.852;8.098;2023-12-04T00:31:21;-2.20;99.90
9790;DHT22;4934;50.852;8.098;2023-12-04T00:33:47;-2.20;99.90
9790;DHT22;4934;50.852;8.098;2023-12-04T00:36:13;-2.20;99.90
9790;DHT22;4934;50.852;8.098;2023-12-04T00:38:39;-2.20;99.90
9790;DHT22;4934;50.852;8.098;2023-12-04T00:41:05;-2.30;99.90
9790;DHT22;4934;50.852;8.098;2023-12-04T00:43:30;-2.20;99.90
9790;DHT22;4934;50.852;8.098;2023-12-04T00:45:56;-2.10;99.90
9790;DHT22;4934;50.852;8.098;2023-12-04T00:48:22;-2.20;99.90
9790;DHT22;4934;50.852;8.098;2023-12-04T00:50:47;-2.10;99.90
9790;DHT22;4934;50.852;8.098;2023-12-04T00:53:13;-2.10;99.90
9790;DHT22;4934;50.852;8.098;2023-12-04T00:55:39;-2.20;99.90
9790;DHT22;4934;50.852;8.098;2023-12-04T00:58:04;-2.20;99.90
9790;DHT22;4934;50.852;8.098;2023-12-04T01:00:30;-2.30;99.90
9790;DHT22;4934;50.852;8.098;2023-12-04T01:02:55;-2.30;99.90
9790;DHT22;4934;50.852;8.098;2023-12-04T01:05:21;-2.30;99.90
9790;DHT22;4934;50.852;8.098;2023-12-04T01:07:47;-2.30;99.90
9790;DHT22;4934;50.852;8.098;2023-12-04T01:10:12;-2.30;99.90
9790;DHT22;4934;50.852;8.098;2023-12-04T01:12:38;-2.30;99.90
9790;DHT22;4934;50.852;8.098;2023-12-04T01:15:04;-2.30;99.90
9790;DHT22;4934;50.852;8.098;2023-12-04T01:17:29;-2.30;99.90
9790;DHT22;4934;50.852;8.098;2023-12-04T01:19:55;-2.30;99.90
9790;DHT22;4934;50.852;8.098;2023-12-04T01:22:20;-2.30;99.90
9790;DHT22;4934;50.852;8.098;2023-12-04T01:24:46;-2.30;99.90
9790;DHT22;4934;50.852;8.098;2023-12-04T01:27:12;-2.30;99.90
9790;DHT22;4934;50.852;8.098;2023-12-04T01:29:38;-2.30;99.90
9790;DHT22;4934;50.852;8.098;2023-12-04T01:32:04;-2.30;99.90
9790;DHT22;4934;50.852;8.098;2023-12-04T01:34:30;-2.30;99.90
9790;DHT22;4934;50.852;8.098;2023-12-04T01:36:55;-2.30;99.90
9790;DHT22;4934;50.852;8.098;2023-12-04T01:39:21;-2.40;99.90
9790;DHT22;4934;50.852;8.098;2023-12-04T01:41:47;-2.50;99.90
9790;DHT22;4934;50.852;8.098;2023-12-04T01:44:12;-2.50;99.90
9790;DHT22;4934;50.852;8.098;2023-12-04T01:46:38;-2.50;99.90
9790;DHT22;4934;50.852;8.098;2023-12-04T01:49:04;-2.40;99.90
9790;DHT22;4934;50.852;8.098;2023-12-04T01:51:29;-2.40;99.90
9790;DHT22;4934;50.852;8.098;2023-12-04T01:54:00;-2.40;99.90
9790;DHT22;4934;50.852;8.098;2023-12-04T01:56:27;-2.50;99.90
9790;DHT22;4934;50.852;8.098;2023-12-04T01:58:53;-2.50;99.90
9790;DHT22;4934;50.852;8.098;2023-12-04T02:01:19;-2.50;99.90
9790;DHT22;4934;50.852;8.098;2023-12-04T02:03:45;-2.50;99.90
9790;DHT22;4934;50.852;8.098;2023-12-04T02:06:12;-2.50;99.90
9790;DHT22;4934;50.852;8.098;2023-12-04T02:08:39;-2.40;99.90
9790;DHT22;4934;50.852;8.098;2023-12-04T02:11:05;-2.50;99.90
9790;DHT22;4934;50.852;8.098;2023-12-04T02:13:31;-2.50;99.90
9790;DHT22;4934;50.852;8.098;2023-12-04T02:15:58;-2.50;99.90
9790;DHT22;4934;50.852;8.098;2023-12-04T02:18:26;-2.50;99.90
9790;DHT22;4934;50.852;8.098;2023-12-04T02:20:51;-2.50;99.90
9790;DHT22;4934;50.852;8.098;2023-12-04T02:23:18;-2.50;99.90
9790;DHT22;4934;50.852;8.098;2023-12-04T02:25:44;-2.50;99.90
9790;DHT22;4934;50.852;8.098;2023-12-04T02:28:12;-2.40;99.90
9790;DHT22;4934;50.852;8.098;2023-12-04T02:30:41;-2.50;99.90
9790;DHT22;4934;50.852;8.098;2023-12-04T02:33:10;-2.50;99.90
9790;DHT22;4934;50.852;8.098;2023-12-04T02:35:37;-2.60;99.90
9790;DHT22;4934;50.852;8.098;2023-12-04T02:38:05;-2.60;99.90
9790;DHT22;4934;50.852;8.098;2023-12-04T02:40:31;-2.60;99.90
9790;DHT22;4934;50.852;8.098;2023-12-04T02:42:57;-2.60;99.90
9790;DHT22;4934;50.852;8.098;2023-12-04T02:45:23;-2.70;99.90
9790;DHT22;4934;50.852;8.098;2023-12-04T02:47:48;-2.70;99.90
9790;DHT22;4934;50.852;8.098;2023-12-04T02:50:14;-2.60;99.90
9790;DHT22;4934;50.852;8.098;2023-12-04T02:52:40;-2.70;99.90
9790;DHT22;4934;50.852;8.098;2023-12-04T02:55:05;-2.60;99.90
9790;DHT22;4934;50.852;8.098;2023-12-04T02:57:31;-2.60;99.90
9790;DHT22;4934;50.852;8.098;2023-12-04T02:59:57;-2.60;99.90
9790;DHT22;4934;50.852;8.098;2023-12-04T03:02:22;-2.50;99.90
9790;DHT22;4934;50.852;8.098;2023-12-04T03:04:48;-2.50;99.90
9790;DHT22;4934;50.852;8.098;2023-12-04T03:07:13;-2.50;99.90
9790;DHT22;4934;50.852;8.098;2023-12-04T03:09:39;-2.50;99.90
9790;DHT22;4934;50.852;8.098;2023-12-04T03:12:05;-2.50;99.90
9790;DHT22;4934;50.852;8.098;2023-12-04T03:14:30;-2.40;99.90
9790;DHT22;4934;50.852;8.098;2023-12-04T03:16:56;-2.50;99.90
9790;DHT22;4934;50.852;8.098;2023-12-04T03:19:22;-2.50;99.90
9790;DHT22;4934;50.852;8.098;2023-12-04T03:21:47;-2.50;99.90
9790;DHT22;4934;50.852;8.098;2023-12-04T03:24:13;-2.50;99.90
9790;DHT22;4934;50.852;8.098;2023-12-04T03:26:39;-2.60;99.90
9790;DHT22;4934;50.852;8.098;2023-12-04T03:29:05;-2.60;99.90
9790;DHT22;4934;50.852;8.098;2023-12-04T03:31:30;-2.60;99.90
9790;DHT22;4934;50.852;8.098;2023-12-04T03:33:57;-2.60;99.90
9790;DHT22;4934;50.852;8.098;2023-12-04T03:36:24;-2.70;99.90
9790;DHT22;4934;50.852;8.098;2023-12-04T03:38:49;-2.80;99.90
9790;DHT22;4934;50.852;8.098;2023-12-04T03:41:15;-2.80;99.90
9790;DHT22;4934;50.852;8.098;2023-12-04T03:43:41;-2.70;99.90
9790;DHT22;4934;50.852;8.098;2023-12-04T03:46:07;-2.60;99.90
9790;DHT22;4934;50.852;8.098;2023-12-04T03:48:33;-2.60;99.90
9790;DHT22;4934;50.852;8.098;2023-12-04T03:50:58;-2.60;99.90
9790;DHT22;4934;50.852;8.098;2023-12-04T03:53:26;-2.60;99.90
9790;DHT22;4934;50.852;8.098;2023-12-04T03:55:51;-2.60;99.90
9790;DHT22;4934;50.852;8.098;2023-12-04T03:58:17;-2.70;99.90
9790;DHT22;4934;50.852;8.098;2023-12-04T04:00:42;-2.60;99.90
9790;DHT22;4934;50.852;8.098;2023-12-04T04:03:09;-2.70;99.90
9790;DHT22;4934;50.852;8.098;2023-12-04T04:05:35;-2.70;99.90
9790;DHT22;4934;50.852;8.098;2023-12-04T04:08:01;-2.70;99.90
9790;DHT22;4934;50.852;8.098;2023-12-04T04:10:27;-2.70;99.90
9790;DHT22;4934;50.852;8.098;2023-12-04T04:12:52;-2.70;99.90
9790;DHT22;4934;50.852;8.098;2023-12-04T04:15:18;-2.80;99.90
9790;DHT22;4934;50.852;8.098;2023-12-04T04:17:43;-2.80;99.90
9790;DHT22;4934;50.852;8.098;2023-12-04T04:20:09;-2.80;99.90
9790;DHT22;4934;50.852;8.098;2023-12-04T04:22:38;-2.90;99.90
9790;DHT22;4934;50.852;8.098;2023-12-04T04:25:06;-2.90;99.90
9790;DHT22;4934;50.852;8.098;2023-12-04T04:27:32;-2.90;99.90
9790;DHT22;4934;50.852;8.098;2023-12-04T04:29:57;-2.80;99.90
9790;DHT22;4934;50.852;8.098;2023-12-04T04:32:23;-2.80;99.90
9790;DHT22;4934;50.852;8.098;2023-12-04T04:34:49;-2.80;99.90
9790;DHT22;4934;50.852;8.098;2023-12-04T04:37:14;-2.80;99.90
9790;DHT22;4934;50.852;8.098;2023-12-04T04:39:40;-2.80;99.90
9790;DHT22;4934;50.852;8.098;2023-12-04T04:42:06;-2.90;99.90
9790;DHT22;4934;50.852;8.098;2023-12-04T04:44:31;-2.90;99.90
9790;DHT22;4934;50.852;8.098;2023-12-04T04:46:57;-2.90;99.90
9790;DHT22;4934;50.852;8.098;2023-12-04T04:49:22;-2.90;99.90
9790;DHT22;4934;50.852;8.098;2023-12-04T04:51:48;-2.90;99.90
9790;DHT22;4934;50.852;8.098;2023-12-04T04:54:14;-2.90;99.90
9790;DHT22;4934;50.852;8.098;2023-12-04T04:56:39;-2.80;99.90
9790;DHT22;4934;50.852;8.098;2023-12-04T04:59:05;-2.80;99.90
9790;DHT22;4934;50.852;8.098;2023-12-04T05:01:31;-2.70;99.90
9790;DHT22;4934;50.852;8.098;2023-12-04T05:03:56;-2.70;99.90
9790;DHT22;4934;50.852;8.098;2023-12-04T05:06:22;-2.70;99.90
9790;DHT22;4934;50.852;8.098;2023-12-04T05:08:50;-2.60;99.90
9790;DHT22;4934;50.852;8.098;2023-12-04T05:11:17;-2.70;99.90
9790;DHT22;4934;50.852;8.098;2023-12-04T05:13:45;-2.70;99.90
9790;DHT22;4934;50.852;8.098;2023-12-04T05:16:10;-2.70;99.90
9790;DHT22;4934;50.852;8.098;2023-12-04T05:18:37;-2.80;99.90
9790;DHT22;4934;50.852;8.098;2023-12-04T05:21:03;-2.80;99.90
9790;DHT22;4934;50.852;8.098;2023-12-04T05:23:28;-2.90;99.90
9790;DHT22;4934;50.852;8.098;2023-12-04T05:25:54;-2.90;99.90
9790;DHT22;4934;50.852;8.098;2023-12-04T05:28:20;-3.00;99.90
9790;DHT22;4934;50.852;8.098;2023-12-04T05:30:45;-3.10;99.90
9790;DHT22;4934;50.852;8.098;2023-12-04T05:33:11;-3.00;99.90
9790;DHT22;4934;50.852;8.098;2023-12-04T05:35:36;-3.10;99.90
9790;DHT22;4934;50.852;8.098;2023-12-04T05:38:02;-3.20;99.90
9790;DHT22;4934;50.852;8.098;2023-12-04T05:40:28;-3.10;99.90
9790;DHT22;4934;50.852;8.098;2023-12-04T05:42:53;-3.10;99.90
9790;DHT22;4934;50.852;8.098;2023-12-04T05:45:19;-2.90;99.90
9790;DHT22;4934;50.852;8.098;2023-12-04T05:47:45;-2.90;99.90
9790;DHT22;4934;50.852;8.098;2023-12-04T05:50:11;-2.90;99.90
9790;DHT22;4934;50.852;8.098;2023-12-04T05:52:36;-3.00;99.90
9790;DHT22;4934;50.852;8.098;2023-12-04T05:55:02;-3.10;99.90
9790;DHT22;4934;50.852;8.098;2023-12-04T05:57:28;-3.20;99.90
9790;DHT22;4934;50.852;8.098;2023-12-04T05:59:54;-3.30;99.90
9790;DHT22;4934;50.852;8.098;2023-12-04T06:02:19;-3.30;99.90
9790;DHT22;4934;50.852;8.098;2023-12-04T06:04:45;-3.50;99.90
9790;DHT22;4934;50.852;8.098;2023-12-04T06:07:10;-3.40;99.90
9790;DHT22;4934;50.852;8.098;2023-12-04T06:09:36;-3.40;99.90
9790;DHT22;4934;50.852;8.098;2023-12-04T06:12:02;-3.40;99.90
9790;DHT22;4934;50.852;8.098;2023-12-04T06:14:33;-3.40;99.90
9790;DHT22;4934;50.852;8.098;2023-12-04T06:16:59;-3.40;99.90
9790;DHT22;4934;50.852;8.098;2023-12-04T06:19:24;-3.40;99.90
9790;DHT22;4934;50.852;8.098;2023-12-04T06:21:50;-3.40;99.90
9790;DHT22;4934;50.852;8.098;2023-12-04T06:24:16;-3.40;99.90
9790;DHT22;4934;50.852;8.098;2023-12-04T06:26:42;-3.40;99.90
9790;DHT22;4934;50.852;8.098;2023-12-04T06:29:09;-3.40;99.90
9790;DHT22;4934;50.852;8.098;2023-12-04T06:31:35;-3.40;99.90
9790;DHT22;4934;50.852;8.098;2023-12-04T06:34:00;-3.50;99.90
9790;DHT22;4934;50.852;8.098;2023-12-04T06:36:26;-3.40;99.90
9790;DHT22;4934;50.852;8.098;2023-12-04T06:38:55;-3.40;99.90
9790;DHT22;4934;50.852;8.098;2023-12-04T06:41:21;-3.40;99.90
9790;DHT22;4934;50.852;8.098;2023-12-04T06:43:47;-3.40;99.90
9790;DHT22;4934;50.852;8.098;2023-12-04T06:46:14;-3.60;99.90
9790;DHT22;4934;50.852;8.098;2023-12-04T06:48:43;-3.70;99.90
9790;DHT22;4934;50.852;8.098;2023-12-04T06:51:08;-3.60;99.90
9790;DHT22;4934;50.852;8.098;2023-12-04T06:53:34;-3.70;99.90
9790;DHT22;4934;50.852;8.098;2023-12-04T06:56:00;-3.60;99.90
9790;DHT22;4934;50.852;8.098;2023-12-04T06:58:25;-3.50;99.90
9790;DHT22;4934;50.852;8.098;2023-12-04T07:00:51;-3.60;99.90
9790;DHT22;4934;50.852;8.098;2023-12-04T07:03:18;-3.60;99.90
9790;DHT22;4934;50.852;8.098;2023-12-04T07:05:44;-3.50;99.90
9790;DHT22;4934;50.852;8.098;2023-12-04T07:08:09;-3.60;99.90
9790;DHT22;4934;50.852;8.098;2023-12-04T07:10:35;-3.60;99.90
9790;DHT22;4934;50.852;8.098;2023-12-04T07:13:01;-3.70;99.90
9790;DHT22;4934;50.852;8.098;2023-12-04T07:15:27;-3.60;99.90
9790;DHT22;4934;50.852;8.098;2023-12-04T07:17:52;-3.60;99.90
9790;DHT22;4934;50.852;8.098;2023-12-04T07:20:18;-3.60;99.90
9790;DHT22;4934;50.852;8.098;2023-12-04T07:22:45;-3.60;99.90
9790;DHT22;4934;50.852;8.098;2023-12-04T07:25:10;-3.60;99.90
9790;DHT22;4934;50.852;8.098;2023-12-04T07:27:36;-3.50;99.90
9790;DHT22;4934;50.852;8.098;2023-12-04T07:30:03;-3.50;99.90
9790;DHT22;4934;50.852;8.098;2023-12-04T07:32:28;-3.50;99.90
9790;DHT22;4934;50.852;8.098;2023-12-04T07:34:54;-3.50;99.90
9790;DHT22;4934;50.852;8.098;2023-12-04T07:37:20;-3.50;99.90
9790;DHT22;4934;50.852;8.098;2023-12-04T07:39:45;-3.40;99.90
9790;DHT22;4934;50.852;8.098;2023-12-04T07:42:13;-3.40;99.90
9790;DHT22;4934;50.852;8.098;2023-12-04T07:44:39;-3.40;99.90
9790;DHT22;4934;50.852;8.098;2023-12-04T07:47:04;-3.30;99.90
9790;DHT22;4934;50.852;8.098;2023-12-04T07:49:30;-3.30;99.90
9790;DHT22;4934;50.852;8.098;2023-12-04T07:51:56;-3.40;99.90
9790;DHT22;4934;50.852;8.098;2023-12-04T07:54:21;-3.40;99.90
9790;DHT22;4934;50.852;8.098;2023-12-04T07:56:51;-3.40;99.90
9790;DHT22;4934;50.852;8.098;2023-12-04T07:59:18;-3.30;99.90
9790;DHT22;4934;50.852;8.098;2023-12-04T08:01:43;-3.20;99.90
9790;DHT22;4934;50.852;8.098;2023-12-04T08:04:10;-3.00;99.90
9790;DHT22;4934;50.852;8.098;2023-12-04T08:06:36;-3.00;99.90
9790;DHT22;4934;50.852;8.098;2023-12-04T08:09:02;-3.00;99.90
9790;DHT22;4934;50.852;8.098;2023-12-04T08:11:29;-3.00;99.90
9790;DHT22;4934;50.852;8.098;2023-12-04T08:13:55;-3.00;99.90
9790;DHT22;4934;50.852;8.098;2023-12-04T08:16:20;-3.00;99.90
9790;DHT22;4934;50.852;8.098;2023-12-04T08:18:46;-2.90;99.90
9790;DHT22;4934;50.852;8.098;2023-12-04T08:21:12;-2.90;99.90
9790;DHT22;4934;50.852;8.098;2023-12-04T08:23:38;-2.80;99.90
9790;DHT22;4934;50.852;8.098;2023-12-04T08:26:05;-2.70;99.90
9790;DHT22;4934;50.852;8.098;2023-12-04T08:28:30;-2.60;99.90
9790;DHT22;4934;50.852;8.098;2023-12-04T08:30:56;-2.50;99.90
9790;DHT22;4934;50.852;8.098;2023-12-04T08:33:22;-2.50;99.90
9790;DHT22;4934;50.852;8.098;2023-12-04T08:35:47;-2.50;99.90
9790;DHT22;4934;50.852;8.098;2023-12-04T08:38:13;-2.40;99.90
9790;DHT22;4934;50.852;8.098;2023-12-04T08:40:38;-2.50;99.90
9790;DHT22;4934;50.852;8.098;2023-12-04T08:43:05;-2.40;99.90
9790;DHT22;4934;50.852;8.098;2023-12-04T08:45:30;-2.40;99.90
9790;DHT22;4934;50.852;8.098;2023-12-04T08:47:56;-2.30;99.90
9790;DHT22;4934;50.852;8.098;2023-12-04T08:50:22;-2.30;99.90
9790;DHT22;4934;50.852;8.098;2023-12-04T08:52:47;-2.30;99.90
9790;DHT22;4934;50.852;8.098;2023-12-04T08:55:13;-2.20;99.90
9790;DHT22;4934;50.852;8.098;2023-12-04T08:57:39;-2.10;99.90
9790;DHT22;4934;50.852;8.098;2023-12-04T09:00:05;-2.20;99.90
9790;DHT22;4934;50.852;8.098;2023-12-04T09:02:30;-2.20;99.90
9790;DHT22;4934;50.852;8.098;2023-12-04T09:04:56;-2.10;99.90
9790;DHT22;4934;50.852;8.098;2023-12-04T09:07:22;-2.10;99.90
9790;DHT22;4934;50.852;8.098;2023-12-04T09:09:47;-2.10;99.90
9790;DHT22;4934;50.852;8.098;2023-12-04T09:12:13;-2.10;99.90
9790;DHT22;4934;50.852;8.098;2023-12-04T09:14:39;-2.20;99.90
9790;DHT22;4934;50.852;8.098;2023-12-04T09:17:04;-2.20;99.90
9790;DHT22;4934;50.852;8.098;2023-12-04T09:19:31;-2.10;99.90
9790;DHT22;4934;50.852;8.098;2023-12-04T09:21:56;-2.20;99.90
9790;DHT22;4934;50.852;8.098;2023-12-04T09:24:23;-2.40;99.90
9790;DHT22;4934;50.852;8.098;2023-12-04T09:26:49;-2.30;99.90
9790;DHT22;4934;50.852;8.098;2023-12-04T09:29:14;-2.10;99.90
9790;DHT22;4934;50.852;8.098;2023-12-04T09:31:41;-2.00;99.90
9790;DHT22;4934;50.852;8.098;2023-12-04T09:34:07;-1.80;99.90
9790;DHT22;4934;50.852;8.098;2023-12-04T09:36:33;-1.80;99.90
9790;DHT22;4934;50.852;8.098;2023-12-04T09:38:59;-1.90;99.90
9790;DHT22;4934;50.852;8.098;2023-12-04T09:41:26;-1.90;99.90
9790;DHT22;4934;50.852;8.098;2023-12-04T09:43:52;-1.90;99.90
9790;DHT22;4934;50.852;8.098;2023-12-04T09:46:18;-1.80;99.90
9790;DHT22;4934;50.852;8.098;2023-12-04T09:48:44;-2.00;99.90
9790;DHT22;4934;50.852;8.098;2023-12-04T09:51:10;-1.90;99.90
9790;DHT22;4934;50.852;8.098;2023-12-04T09:53:36;-1.90;99.90
9790;DHT22;4934;50.852;8.098;2023-12-04T09:56:03;-1.80;99.90
9790;DHT22;4934;50.852;8.098;2023-12-04T09:58:30;-1.90;99.90
9790;DHT22;4934;50.852;8.098;2023-12-04T10:00:59;-1.80;99.90
9790;DHT22;4934;50.852;8.098;2023-12-04T10:03:26;-1.80;99.90
9790;DHT22;4934;50.852;8.098;2023-12-04T10:05:54;-1.70;99.90
9790;DHT22;4934;50.852;8.098;2023-12-04T10:08:19;-1.60;99.90
9790;DHT22;4934;50.852;8.098;2023-12-04T10:10:45;-1.50;99.90
9790;DHT22;4934;50.852;8.098;2023-12-04T10:13:11;-1.70;99.90
9790;DHT22;4934;50.852;8.098;2023-12-04T10:15:51;-1.50;99.90
9790;DHT22;4934;50.852;8.098;2023-12-04T10:18:30;-1.30;99.90
9790;DHT22;4934;50.852;8.098;2023-12-04T10:20:57;-1.40;99.90
9790;DHT22;4934;50.852;8.098;2023-12-04T10:23:38;-1.30;99.90
9790;DHT22;4934;50.852;8.098;2023-12-04T10:26:04;-1.30;99.90
9790;DHT22;4934;50.852;8.098;2023-12-04T10:28:30;-1.20;99.90
9790;DHT22;4934;50.852;8.098;2023-12-04T10:30:56;-1.20;99.90
9790;DHT22;4934;50.852;8.098;2023-12-04T10:33:25;-1.30;99.90
9790;DHT22;4934;50.852;8.098;2023-12-04T10:35:52;-1.20;99.90
9790;DHT22;4934;50.852;8.098;2023-12-04T10:38:18;-1.10;99.90
9790;DHT22;4934;50.852;8.098;2023-12-04T10:40:44;-1.00;99.90
9790;DHT22;4934;50.852;8.098;2023-12-04T10:43:18;-0.90;99.90
9790;DHT22;4934;50.852;8.098;2023-12-04T10:45:46;-0.90;99.90
9790;DHT22;4934;50.852;8.098;2023-12-04T10:48:13;-0.90;99.90
9790;DHT22;4934;50.852;8.098;2023-12-04T10:50:41;-0.90;99.90
9790;DHT22;4934;50.852;8.098;2023-12-04T10:53:08;-0.70;99.90
9790;DHT22;4934;50.852;8.098;2023-12-04T10:55:34;-0.80;99.90
9790;DHT22;4934;50.852;8.098;2023-12-04T10:58:11;-0.80;99.90
9790;DHT22;4934;50.852;8.098;2023-12-04T11:00:48;-0.60;99.90
9790;DHT22;4934;50.852;8.098;2023-12-04T11:03:36;-0.80;99.90
9790;DHT22;4934;50.852;8.098;2023-12-04T11:06:02;-0.80;99.90
9790;DHT22;4934;50.852;8.098;2023-12-04T11:08:33;-0.80;99.90
9790;DHT22;4934;50.852;8.098;2023-12-04T11:11:05;-0.60;99.90
9790;DHT22;4934;50.852;8.098;2023-12-04T11:13:37;-0.30;99.90
9790;DHT22;4934;50.852;8.098;2023-12-04T11:16:12;-0.40;99.90
9790;DHT22;4934;50.852;8.098;2023-12-04T11:18:43;-0.30;99.90
9790;DHT22;4934;50.852;8.098;2023-12-04T11:21:10;-0.40;99.90
9790;DHT22;4934;50.852;8.098;2023-12-04T11:23:37;-0.50;99.90
9790;DHT22;4934;50.852;8.098;2023-12-04T11:26:07;-0.50;99.90
9790;DHT22;4934;50.852;8.098;2023-12-04T11:28:34;-0.40;99.90
9790;DHT22;4934;50.852;8.098;2023-12-04T11:31:02;-0.40;99.90
9790;DHT22;4934;50.852;8.098;2023-12-04T11:33:27;-0.40;99.90
9790;DHT22;4934;50.852;8.098;2023-12-04T11:36:06;-0.40;99.90
9790;DHT22;4934;50.852;8.098;2023-12-04T11:38:32;-0.50;99.90
9790;DHT22;4934;50.852;8.098;2023-12-04T11:40:58;-0.40;99.90
9790;DHT22;4934;50.852;8.098;2023-12-04T11:43:25;-0.40;99.90
9790;DHT22;4934;50.852;8.098;2023-12-04T11:45:51;-0.20;99.90
9790;DHT22;4934;50.852;8.098;2023-12-04T11:48:24;-0.10;99.90
9790;DHT22;4934;50.852;8.098;2023-12-04T11:50:50;-0.10;99.90
9790;DHT22;4934;50.852;8.098;2023-12-04T11:53:16;0.00;99.90
9790;DHT22;4934;50.852;8.098;2023-12-04T11:55:42;0.20;99.90
9790;DHT22;4934;50.852;8.098;2023-12-04T11:58:12;0.20;99.90
9790;DHT22;4934;50.852;8.098;2023-12-04T12:00:38;0.30;99.90
9790;DHT22;4934;50.852;8.098;2023-12-04T12:03:07;0.10;99.90
9790;DHT22;4934;50.852;8.098;2023-12-04T12:05:36;0.10;99.90
9790;DHT22;4934;50.852;8.098;2023-12-04T12:08:05;0.00;99.90
9790;DHT22;4934;50.852;8.098;2023-12-04T12:10:31;-0.20;99.90
9790;DHT22;4934;50.852;8.098;2023-12-04T12:12:57;-0.20;99.90
9790;DHT22;4934;50.852;8.098;2023-12-04T12:15:22;-0.30;99.90
9790;DHT22;4934;50.852;8.098;2023-12-04T12:17:49;-0.20;99.90
9790;DHT22;4934;50.852;8.098;2023-12-04T12:20:15;-0.10;99.90
9790;DHT22;4934;50.852;8.098;2023-12-04T12:22:41;-0.40;99.90
9790;DHT22;4934;50.852;8.098;2023-12-04T12:25:10;-0.40;99.90
9790;DHT22;4934;50.852;8.098;2023-12-04T12:27:37;-0.40;99.90
9790;DHT22;4934;50.852;8.098;2023-12-04T12:30:04;-0.40;99.90
9790;DHT22;4934;50.852;8.098;2023-12-04T12:32:34;-0.40;99.90
9790;DHT22;4934;50.852;8.098;2023-12-04T12:35:00;-1.00;99.90
9790;DHT22;4934;50.852;8.098;2023-12-04T12:37:25;-1.10;99.90
9790;DHT22;4934;50.852;8.098;2023-12-04T12:39:52;-1.00;99.90
9790;DHT22;4934;50.852;8.098;2023-12-04T12:42:22;-1.00;99.90
9790;DHT22;4934;50.852;8.098;2023-12-04T12:44:48;-0.80;99.90
9790;DHT22;4934;50.852;8.098;2023-12-04T12:47:15;-0.80;99.90
9790;DHT22;4934;50.852;8.098;2023-12-04T12:49:40;-1.00;99.90
9790;DHT22;4934;50.852;8.098;2023-12-04T12:52:06;-1.20;99.90
9790;DHT22;4934;50.852;8.098;2023-12-04T12:54:38;-1.10;99.90
9790;DHT22;4934;50.852;8.098;2023-12-04T12:57:05;-0.90;99.90
9790;DHT22;4934;50.852;8.098;2023-12-04T12:59:31;-1.00;99.90
9790;DHT22;4934;50.852;8.098;2023-12-04T13:01:57;-0.90;99.90
9790;DHT22;4934;50.852;8.098;2023-12-04T13:04:25;-0.80;99.90
9790;DHT22;4934;50.852;8.098;2023-12-04T13:06:51;-0.80;99.90
9790;DHT22;4934;50.852;8.098;2023-12-04T13:09:16;-1.00;99.90
9790;DHT22;4934;50.852;8.098;2023-12-04T13:11:44;-1.20;99.90
9790;DHT22;4934;50.852;8.098;2023-12-04T13:14:10;-1.20;99.90
9790;DHT22;4934;50.852;8.098;2023-12-04T13:16:36;-1.00;99.90
9790;DHT22;4934;50.852;8.098;2023-12-04T13:19:01;-1.20;99.90
9790;DHT22;4934;50.852;8.098;2023-12-04T13:21:27;-1.30;99.90
9790;DHT22;4934;50.852;8.098;2023-12-04T13:23:54;-1.10;99.90
9790;DHT22;4934;50.852;8.098;2023-12-04T13:26:19;-0.90;99.90
9790;DHT22;4934;50.852;8.098;2023-12-04T13:28:45;-0.80;99.90
9790;DHT22;4934;50.852;8.098;2023-12-04T13:31:13;-0.70;99.90
9790;DHT22;4934;50.852;8.098;2023-12-04T13:33:38;-0.80;99.90
9790;DHT22;4934;50.852;8.098;2023-12-04T13:36:05;-0.90;99.90
9790;DHT22;4934;50.852;8.098;2023-12-04T13:38:30;-0.80;99.90
9790;DHT22;4934;50.852;8.098;2023-12-04T13:40:56;-0.60;99.90
9790;DHT22;4934;50.852;8.098;2023-12-04T13:43:28;-0.60;99.90
9790;DHT22;4934;50.852;8.098;2023-12-04T13:46:12;-0.60;99.90
9790;DHT22;4934;50.852;8.098;2023-12-04T13:48:38;-0.70;99.90
9790;DHT22;4934;50.852;8.098;2023-12-04T13:51:10;-0.70;99.90
9790;DHT22;4934;50.852;8.098;2023-12-04T13:53:36;-0.60;99.90
9790;DHT22;4934;50.852;8.098;2023-12-04T13:56:08;-0.50;99.90
9790;DHT22;4934;50.852;8.098;2023-12-04T13:58:49;-0.40;99.90
9790;DHT22;4934;50.852;8.098;2023-12-04T14:01:25;-0.50;99.90
9790;DHT22;4934;50.852;8.098;2023-12-04T14:03:55;-0.60;99.90
9790;DHT22;4934;50.852;8.098;2023-12-04T14:06:25;-0.70;99.90
9790;DHT22;4934;50.852;8.098;2023-12-04T14:08:51;-0.70;99.90
9790;DHT22;4934;50.852;8.098;2023-12-04T14:11:16;-0.70;99.90
9790;DHT22;4934;50.852;8.098;2023-12-04T14:13:42;-0.80;99.90
9790;DHT22;4934;50.852;8.098;2023-12-04T14:16:08;-1.10;99.90
9790;DHT22;4934;50.852;8.098;2023-12-04T14:18:34;-1.00;99.90
9790;DHT22;4934;50.852;8.098;2023-12-04T14:21:00;-1.20;99.90
9790;DHT22;4934;50.852;8.098;2023-12-04T14:23:25;-1.10;99.90
9790;DHT22;4934;50.852;8.098;2023-12-04T14:25:51;-1.20;99.90
9790;DHT22;4934;50.852;8.098;2023-12-04T14:28:17;-1.10;99.90
9790;DHT22;4934;50.852;8.098;2023-12-04T14:30:42;-1.20;99.90
9790;DHT22;4934;50.852;8.098;2023-12-04T14:33:08;-1.20;99.90
9790;DHT22;4934;50.852;8.098;2023-12-04T14:35:37;-1.30;99.90
9790;DHT22;4934;50.852;8.098;2023-12-04T14:38:03;-1.40;99.90
9790;DHT22;4934;50.852;8.098;2023-12-04T14:40:30;-1.50;99.90
9790;DHT22;4934;50.852;8.098;2023-12-04T14:42:56;-1.50;99.90
9790;DHT22;4934;50.852;8.098;2023-12-04T14:45:21;-1.50;99.90
9790;DHT22;4934;50.852;8.098;2023-12-04T14:47:47;-1.60;99.90
9790;DHT22;4934;50.852;8.098;2023-12-04T14:50:13;-1.60;99.90
9790;DHT22;4934;50.852;8.098;2023-12-04T14:52:39;-1.80;99.90
9790;DHT22;4934;50.852;8.098;2023-12-04T14:55:15;-1.80;99.90
9790;DHT22;4934;50.852;8.098;2023-12-04T14:57:53;-2.00;99.90
9790;DHT22;4934;50.852;8.098;2023-12-04T15:00:27;-2.10;99.90
9790;DHT22;4934;50.852;8.098;2023-12-04T15:03:28;-2.10;99.90
9790;DHT22;4934;50.852;8.098;2023-12-04T15:06:09;-2.00;99.90
9790;DHT22;4934;50.852;8.098;2023-12-04T15:08:34;-2.00;99.90
9790;DHT22;4934;50.852;8.098;2023-12-04T15:11:18;-1.90;99.90
9790;DHT22;4934;50.852;8.098;2023-12-04T15:14:19;-2.00;99.90
9790;DHT22;4934;50.852;8.098;2023-12-04T15:16:56;-2.10;99.90
9790;DHT22;4934;50.852;8.098;2023-12-04T15:19:39;-2.20;99.90
9790;DHT22;4934;50.852;8.098;2023-12-04T15:22:22;-2.10;99.90
9790;DHT22;4934;50.852;8.098;2023-12-04T15:24:48;-2.00;99.90
9790;DHT22;4934;50.852;8.098;2023-12-04T15:27:13;-2.10;99.90
9790;DHT22;4934;50.852;8.098;2023-12-04T15:29:39;-2.20;99.90
9790;DHT22;4934;50.852;8.098;2023-12-04T15:32:06;-2.10;99.90
9790;DHT22;4934;50.852;8.098;2023-12-04T15:34:31;-2.10;99.90
9790;DHT22;4934;50.852;8.098;2023-12-04T15:36:57;-2.00;99.90
9790;DHT22;4934;50.852;8.098;2023-12-04T15:39:23;-2.10;99.90
9790;DHT22;4934;50.852;8.098;2023-12-04T15:41:48;-2.10;99.90
9790;DHT22;4934;50.852;8.098;2023-12-04T15:44:14;-2.10;99.90
9790;DHT22;4934;50.852;8.098;2023-12-04T15:46:40;-2.10;99.90
9790;DHT22;4934;50.852;8.098;2023-12-04T15:49:05;-2.10;99.90
9790;DHT22;4934;50.852;8.098;2023-12-04T15:51:31;-2.20;99.90
9790;DHT22;4934;50.852;8.098;2023-12-04T15:53:57;-2.10;99.90
9790;DHT22;4934;50.852;8.098;2023-12-04T15:56:22;-2.10;99.90
9790;DHT22;4934;50.852;8.098;2023-12-04T15:58:48;-2.10;99.90
9790;DHT22;4934;50.852;8.098;2023-12-04T16:01:14;-2.10;99.90